createdAt,value
2023-01-07T00:01:44.624Z,7.73
2023-01-07T00:04:15.523Z,7.73
2023-01-07T00:06:47.243Z,7.69
2023-01-07T00:09:17.416Z,7.70
2023-01-07T00:11:46.444Z,7.75
2023-01-07T00:14:15.741Z,7.73
2023-01-07T00:16:44.656Z,7.75
2023-01-07T00:19:16.835Z,7.83
2023-01-07T00:21:44.991Z,7.83
2023-01-07T00:24:13.890Z,7.84
2023-01-07T00:26:43.385Z,7.82
2023-01-07T00:29:11.675Z,7.82
2023-01-07T00:31:41.717Z,7.76
2023-01-07T00:34:10.373Z,7.67
2023-01-07T00:36:42.607Z,7.64
2023-01-07T00:39:14.995Z,7.65
2023-01-07T00:42:06.436Z,7.64
2023-01-07T00:44:36.906Z,7.60
2023-01-07T00:47:04.988Z,7.71
2023-01-07T00:49:33.105Z,7.68
2023-01-07T00:52:01.131Z,7.69
2023-01-07T00:54:29.353Z,7.81
2023-01-07T00:56:58.737Z,7.98
2023-01-07T00:59:26.839Z,8.08
2023-01-07T01:01:55.001Z,8.06
2023-01-07T01:04:23.065Z,8.05
2023-01-07T01:06:51.426Z,8.05
2023-01-07T01:09:20.682Z,8.08
2023-01-07T01:11:48.760Z,8.08
2023-01-07T01:14:18.173Z,8.12
2023-01-07T01:16:46.200Z,8.18
2023-01-07T01:19:14.265Z,8.18
2023-01-07T01:21:42.835Z,8.14
2023-01-07T01:24:11.047Z,8.15
2023-01-07T01:26:39.144Z,8.19
2023-01-07T01:29:07.277Z,8.17
2023-01-07T01:31:36.735Z,8.21
2023-01-07T01:34:04.980Z,8.29
2023-01-07T01:36:33.069Z,8.29
2023-01-07T01:39:01.137Z,8.28
2023-01-07T01:41:29.285Z,8.31
2023-01-07T01:43:57.372Z,8.33
2023-01-07T01:46:40.610Z,8.25
2023-01-07T01:49:21.997Z,8.32
2023-01-07T01:51:57.896Z,8.31
2023-01-07T01:54:28.223Z,8.24
2023-01-07T01:57:00.999Z,8.21
2023-01-07T01:59:35.710Z,8.18
2023-01-07T02:02:07.438Z,8.19
2023-01-07T02:04:37.509Z,8.20
2023-01-07T02:07:12.407Z,8.16
2023-01-07T02:09:40.410Z,8.13
2023-01-07T02:12:22.581Z,8.09
2023-01-07T02:15:10.641Z,8.11
2023-01-07T02:18:02.909Z,8.09
2023-01-07T02:20:47.926Z,8.09
2023-01-07T02:24:06.879Z,8.11
2023-01-07T02:27:18.380Z,8.11
2023-01-07T02:30:30.023Z,8.13
2023-01-07T02:33:35.059Z,8.16
2023-01-07T02:36:31.848Z,8.22
2023-01-07T02:39:21.389Z,8.26
2023-01-07T02:41:58.483Z,8.26
2023-01-07T02:44:38.597Z,8.21
2023-01-07T02:47:16.931Z,8.24
2023-01-07T02:49:48.485Z,8.23
2023-01-07T02:52:21.525Z,8.21
2023-01-07T02:54:56.771Z,8.18
2023-01-07T02:58:15.412Z,8.15
2023-01-07T03:01:20.728Z,8.14
2023-01-07T03:04:18.288Z,8.21
2023-01-07T03:07:11.202Z,8.19
2023-01-07T03:09:55.280Z,8.17
2023-01-07T03:12:34.951Z,8.18
2023-01-07T03:15:13.137Z,8.19
2023-01-07T03:17:50.073Z,8.25
2023-01-07T03:20:23.238Z,8.25
2023-01-07T03:22:55.038Z,8.28
2023-01-07T03:25:26.182Z,8.28
2023-01-07T03:27:58.693Z,8.31
2023-01-07T03:30:28.929Z,8.33
2023-01-07T03:33:03.550Z,8.31
2023-01-07T03:35:36.866Z,8.34
2023-01-07T03:38:08.882Z,8.45
2023-01-07T03:40:37.338Z,8.39
2023-01-07T03:43:04.414Z,8.34
2023-01-07T03:45:32.869Z,8.34
2023-01-07T03:48:00.980Z,8.34
2023-01-07T03:50:28.977Z,8.39
2023-01-07T03:52:57.090Z,8.31
2023-01-07T03:55:26.721Z,8.26
2023-01-07T03:57:54.785Z,8.24
2023-01-07T04:00:22.984Z,8.22
2023-01-07T04:02:51.616Z,8.21
2023-01-07T04:05:20.494Z,8.18
2023-01-07T04:07:48.568Z,8.19
2023-01-07T04:10:16.668Z,8.18
2023-01-07T04:12:46.068Z,8.15
2023-01-07T04:15:14.153Z,8.16
2023-01-07T04:17:42.531Z,8.15
2023-01-07T04:20:12.163Z,8.17
2023-01-07T04:22:40.216Z,8.18
2023-01-07T04:25:09.011Z,8.18
2023-01-07T04:27:37.121Z,8.19
2023-01-07T04:30:08.138Z,8.20
2023-01-07T04:32:36.225Z,8.20
2023-01-07T04:35:04.764Z,8.22
2023-01-07T04:37:32.834Z,8.27
2023-01-07T04:40:00.945Z,8.37
2023-01-07T04:42:28.950Z,8.48
2023-01-07T04:44:56.963Z,8.49
2023-01-07T04:47:26.702Z,8.50
2023-01-07T04:49:54.744Z,8.55
2023-01-07T04:52:22.780Z,8.53
2023-01-07T04:54:50.833Z,8.48
2023-01-07T04:57:18.862Z,8.45
2023-01-07T04:59:46.881Z,8.41
2023-01-07T05:02:15.011Z,8.40
2023-01-07T05:04:44.568Z,8.38
2023-01-07T05:07:12.633Z,8.37
2023-01-07T05:09:40.669Z,8.36
2023-01-07T05:12:08.765Z,8.34
2023-01-07T05:14:37.007Z,8.32
2023-01-07T05:17:05.197Z,8.29
2023-01-07T05:19:33.289Z,8.32
2023-01-07T05:22:02.659Z,8.33
2023-01-07T05:24:30.647Z,8.34
2023-01-07T05:26:58.729Z,8.35
2023-01-07T05:29:26.787Z,8.33
2023-01-07T05:31:54.896Z,8.34
2023-01-07T05:34:22.880Z,8.33
2023-01-07T05:36:50.948Z,8.34
2023-01-07T05:39:20.356Z,8.33
2023-01-07T05:41:48.392Z,8.32
2023-01-07T05:44:16.439Z,8.31
2023-01-07T05:46:45.074Z,8.28
2023-01-07T05:49:13.141Z,8.28
2023-01-07T05:51:41.125Z,8.25
2023-01-07T05:54:09.190Z,8.23
2023-01-07T05:56:38.548Z,8.22
2023-01-07T05:59:06.630Z,8.21
2023-01-07T06:01:34.651Z,8.20
2023-01-07T06:04:02.784Z,8.20
2023-01-07T06:06:30.785Z,8.18
2023-01-07T06:08:58.831Z,8.18
2023-01-07T06:11:26.870Z,8.17
2023-01-07T06:13:56.300Z,8.16
2023-01-07T06:16:24.677Z,8.15
2023-01-07T06:18:52.802Z,8.14
2023-01-07T06:21:21.538Z,8.11
2023-01-07T06:23:49.543Z,8.11
2023-01-07T06:26:17.597Z,8.17
2023-01-07T06:28:45.684Z,8.18
2023-01-07T06:31:15.120Z,8.26
2023-01-07T06:33:43.163Z,8.27
2023-01-07T06:36:11.635Z,8.29
2023-01-07T06:38:41.518Z,8.34
2023-01-07T06:41:10.261Z,8.38
2023-01-07T06:43:38.454Z,8.34
2023-01-07T06:46:07.252Z,8.29
2023-01-07T06:48:37.029Z,8.35
2023-01-07T06:51:05.350Z,8.33
2023-01-07T06:53:33.598Z,8.35
2023-01-07T06:56:02.009Z,8.30
2023-01-07T06:58:31.097Z,8.25
2023-01-07T07:01:04.629Z,8.22
2023-01-07T07:03:32.826Z,8.26
2023-01-07T07:06:02.442Z,8.26
2023-01-07T07:08:30.476Z,8.21
2023-01-07T07:10:58.511Z,8.15
2023-01-07T07:13:26.732Z,8.11
2023-01-07T07:15:55.162Z,8.05
2023-01-07T07:18:23.194Z,8.03
2023-01-07T07:20:51.353Z,8.02
2023-01-07T07:23:20.764Z,7.98
2023-01-07T07:25:48.807Z,7.96
2023-01-07T07:28:17.208Z,7.92
2023-01-07T07:30:47.360Z,7.88
2023-01-07T07:33:19.111Z,7.89
2023-01-07T07:35:47.720Z,7.85
2023-01-07T07:38:17.632Z,7.88
2023-01-07T07:40:47.065Z,7.86
2023-01-07T07:43:15.553Z,7.84
2023-01-07T07:45:44.270Z,7.84
2023-01-07T07:48:16.484Z,7.85
2023-01-07T07:50:44.594Z,7.80
2023-01-07T07:53:13.958Z,7.83
2023-01-07T07:55:42.745Z,7.88
2023-01-07T07:58:12.171Z,7.88
2023-01-07T08:00:40.206Z,7.86
2023-01-07T08:03:08.865Z,7.85
2023-01-07T08:05:37.333Z,7.89
2023-01-07T08:08:06.153Z,7.91
2023-01-07T08:10:34.405Z,7.97
2023-01-07T08:13:02.941Z,8.00
2023-01-07T08:15:33.123Z,8.01
2023-01-07T08:18:03.119Z,8.16
2023-01-07T08:20:32.130Z,8.14
2023-01-07T08:23:01.260Z,8.14
2023-01-07T08:25:30.829Z,8.13
2023-01-07T08:28:00.472Z,8.14
2023-01-07T08:30:29.943Z,8.14
2023-01-07T08:33:00.281Z,8.13
2023-01-07T08:35:28.441Z,8.11
2023-01-07T08:38:03.424Z,8.11
2023-01-07T08:40:31.559Z,8.10
2023-01-07T08:43:01.021Z,8.08
2023-01-07T08:45:30.550Z,8.06
2023-01-07T08:48:00.609Z,8.03
2023-01-07T08:50:31.265Z,8.05
2023-01-07T08:52:59.979Z,8.07
2023-01-07T08:55:28.137Z,8.04
2023-01-07T08:57:56.251Z,8.06
2023-01-07T09:00:25.567Z,8.05
2023-01-07T09:02:54.064Z,8.10
2023-01-07T09:05:24.501Z,8.12
2023-01-07T09:07:54.130Z,8.15
2023-01-07T09:10:22.593Z,8.19
2023-01-07T09:12:51.025Z,8.23
2023-01-07T09:15:19.282Z,8.27
2023-01-07T09:17:47.488Z,8.29
2023-01-07T09:20:15.596Z,8.28
2023-01-07T09:22:45.291Z,8.33
2023-01-07T09:25:13.568Z,8.34
2023-01-07T09:27:43.137Z,8.34
2023-01-07T09:30:12.436Z,8.36
2023-01-07T09:32:40.723Z,8.37
2023-01-07T09:35:09.866Z,8.38
2023-01-07T09:37:38.247Z,8.41
2023-01-07T09:40:20.366Z,8.44
2023-01-07T09:42:59.478Z,8.49
2023-01-07T09:45:32.815Z,8.58
2023-01-07T09:48:06.839Z,8.58
2023-01-07T09:50:48.141Z,8.60
2023-01-07T09:53:22.811Z,8.64
2023-01-07T09:56:11.127Z,8.67
2023-01-07T09:58:45.074Z,8.75
2023-01-07T10:01:27.013Z,8.83
2023-01-07T10:04:20.538Z,8.85
2023-01-07T10:07:03.272Z,8.88
2023-01-07T10:09:49.819Z,8.91
2023-01-07T10:12:31.635Z,9.07
2023-01-07T10:15:35.928Z,9.02
2023-01-07T10:18:33.155Z,9.09
2023-01-07T10:21:13.865Z,9.11
2023-01-07T10:23:47.352Z,9.21
2023-01-07T10:26:30.218Z,9.21
2023-01-07T10:29:07.696Z,9.24
2023-01-07T10:31:37.202Z,9.34
2023-01-07T10:34:15.373Z,9.30
2023-01-07T10:37:02.291Z,9.33
2023-01-07T10:39:46.624Z,9.36
2023-01-07T10:42:24.207Z,9.38
2023-01-07T10:45:43.438Z,9.38
2023-01-07T10:48:40.365Z,9.42
2023-01-07T10:51:25.793Z,9.51
2023-01-07T10:54:06.416Z,9.55
2023-01-07T10:56:41.076Z,9.59
2023-01-07T10:59:15.827Z,9.60
2023-01-07T11:01:52.226Z,9.69
2023-01-07T11:04:20.522Z,9.71
2023-01-07T11:06:54.635Z,9.77
2023-01-07T11:09:29.428Z,9.76
2023-01-07T11:12:03.880Z,9.85
2023-01-07T11:14:37.342Z,9.96
2023-01-07T11:17:27.079Z,10.02
2023-01-07T11:19:55.156Z,10.04
2023-01-07T11:22:35.153Z,10.05
2023-01-07T11:25:27.049Z,10.15
2023-01-07T11:27:57.735Z,10.18
2023-01-07T11:30:29.413Z,10.26
2023-01-07T11:33:03.884Z,10.27
2023-01-07T11:35:32.534Z,10.22
2023-01-07T11:38:01.580Z,10.27
2023-01-07T11:40:32.405Z,10.20
2023-01-07T11:43:05.003Z,10.22
2023-01-07T11:45:37.616Z,10.23
2023-01-07T11:48:18.515Z,10.22
2023-01-07T11:50:58.872Z,10.18
2023-01-07T11:53:37.309Z,10.18
2023-01-07T11:56:09.230Z,10.30
2023-01-07T11:58:40.541Z,10.33
2023-01-07T12:01:19.114Z,10.47
2023-01-07T12:04:13.888Z,10.57
2023-01-07T12:06:47.422Z,10.64
2023-01-07T12:09:26.673Z,10.67
2023-01-07T12:11:58.501Z,10.77
2023-01-07T12:14:32.301Z,10.71
2023-01-07T12:17:12.456Z,10.68
2023-01-07T12:20:05.318Z,10.58
2023-01-07T12:22:45.734Z,10.53
2023-01-07T12:25:35.636Z,10.52
2023-01-07T12:28:13.368Z,10.51
2023-01-07T12:31:15.485Z,10.46
2023-01-07T12:34:05.895Z,10.40
2023-01-07T12:36:47.018Z,10.34
2023-01-07T12:39:23.524Z,10.29
2023-01-07T12:42:04.891Z,10.29
2023-01-07T12:44:35.281Z,10.19
2023-01-07T12:47:32.507Z,10.18
2023-01-07T12:50:11.400Z,10.16
2023-01-07T12:52:46.350Z,10.11
2023-01-07T12:55:20.773Z,10.06
2023-01-07T12:58:12.473Z,10.02
2023-01-07T13:00:49.889Z,10.00
2023-01-07T13:03:38.538Z,10.01
2023-01-07T13:06:15.164Z,10.01
2023-01-07T13:08:55.634Z,9.95
2023-01-07T13:11:46.242Z,10.02
2023-01-07T13:14:25.060Z,9.97
2023-01-07T13:16:53.114Z,9.95
2023-01-07T13:19:21.182Z,9.93
2023-01-07T13:21:51.516Z,9.91
2023-01-07T13:24:55.612Z,9.91
2023-01-07T13:27:37.767Z,9.88
2023-01-07T13:30:24.249Z,9.87
2023-01-07T13:33:10.754Z,9.87
2023-01-07T13:36:12.353Z,9.86
2023-01-07T13:39:14.353Z,9.85
2023-01-07T13:42:05.140Z,9.84
2023-01-07T13:45:09.444Z,9.85
2023-01-07T13:47:47.812Z,9.81
2023-01-07T13:50:27.923Z,9.79
2023-01-07T13:53:03.985Z,9.80
2023-01-07T13:55:40.457Z,9.79
2023-01-07T13:58:45.700Z,9.79
2023-01-07T14:01:16.152Z,9.78
2023-01-07T14:03:49.522Z,9.77
2023-01-07T14:06:48.034Z,9.75
2023-01-07T14:09:24.853Z,9.78
2023-01-07T14:12:49.123Z,9.78
2023-01-07T14:15:53.830Z,9.75
2023-01-07T14:19:02.715Z,9.76
2023-01-07T14:22:03.825Z,9.73
2023-01-07T14:25:24.634Z,9.70
2023-01-07T14:28:27.548Z,9.73
2023-01-07T14:30:58.168Z,9.69
2023-01-07T14:33:29.400Z,9.65
2023-01-07T14:36:01.720Z,9.63
2023-01-07T14:39:06.516Z,9.61
2023-01-07T14:41:34.731Z,9.63
2023-01-07T14:44:29.692Z,9.61
2023-01-07T14:46:59.353Z,9.58
2023-01-07T14:49:58.055Z,9.63
2023-01-07T14:53:22.443Z,9.60
2023-01-07T14:56:31.754Z,9.59
2023-01-07T14:59:25.307Z,9.77
2023-01-07T15:02:29.865Z,9.66
2023-01-07T15:05:23.913Z,9.60
2023-01-07T15:08:18.624Z,9.59
2023-01-07T15:11:10.048Z,9.67
2023-01-07T15:14:05.671Z,9.64
2023-01-07T15:16:36.944Z,9.55
2023-01-07T15:19:10.605Z,9.62
2023-01-07T15:21:58.191Z,9.54
2023-01-07T15:24:40.024Z,9.49
2023-01-07T15:27:22.224Z,9.48
2023-01-07T15:30:00.658Z,9.53
2023-01-07T15:32:46.680Z,9.45
2023-01-07T15:35:21.790Z,9.53
2023-01-07T15:37:52.396Z,9.55
2023-01-07T15:40:25.300Z,9.48
2023-01-07T15:42:58.708Z,9.46
2023-01-07T15:45:28.778Z,9.46
2023-01-07T15:48:08.470Z,9.43
2023-01-07T15:50:46.186Z,9.48
2023-01-07T15:53:22.968Z,9.46
2023-01-07T15:55:58.922Z,9.36
2023-01-07T15:58:37.200Z,9.30
2023-01-07T16:01:06.825Z,9.28
2023-01-07T16:03:40.304Z,9.27
2023-01-07T16:06:35.725Z,9.24
2023-01-07T16:09:18.822Z,9.12
2023-01-07T16:11:47.051Z,9.12
2023-01-07T16:14:18.784Z,9.10
2023-01-07T16:16:46.889Z,9.10
2023-01-07T16:19:21.373Z,9.09
2023-01-07T16:21:56.573Z,9.14
2023-01-07T16:24:25.155Z,9.09
2023-01-07T16:26:59.157Z,9.07
2023-01-07T16:29:31.989Z,9.08
2023-01-07T16:32:02.279Z,9.00
2023-01-07T16:35:03.507Z,9.06
2023-01-07T16:37:35.471Z,9.10
2023-01-07T16:40:06.877Z,9.02
2023-01-07T16:42:35.689Z,8.97
2023-01-07T16:45:24.550Z,8.96
2023-01-07T16:48:21.324Z,8.96
2023-01-07T16:50:51.135Z,8.94
2023-01-07T16:53:30.376Z,8.98
2023-01-07T16:56:16.778Z,9.03
2023-01-07T16:58:52.720Z,8.90
2023-01-07T17:01:30.716Z,8.83
2023-01-07T17:04:02.602Z,8.80
2023-01-07T17:06:40.495Z,8.83
2023-01-07T17:09:22.763Z,8.83
2023-01-07T17:11:53.582Z,8.79
2023-01-07T17:14:48.761Z,8.78
2023-01-07T17:17:32.832Z,8.79
2023-01-07T17:20:22.176Z,8.78
2023-01-07T17:22:50.840Z,8.82
2023-01-07T17:25:28.031Z,8.81
2023-01-07T17:28:00.889Z,8.84
2023-01-07T17:30:35.983Z,8.80
2023-01-07T17:33:05.096Z,8.77
2023-01-07T17:35:33.195Z,8.75
2023-01-07T17:38:01.250Z,8.75
2023-01-07T17:40:30.716Z,8.80
2023-01-07T17:43:16.265Z,8.77
2023-01-07T17:45:44.311Z,8.73
2023-01-07T17:48:14.370Z,8.69
2023-01-07T17:50:43.601Z,8.62
2023-01-07T17:53:23.073Z,8.59
2023-01-07T17:55:52.922Z,8.67
2023-01-07T17:58:29.890Z,8.62
2023-01-07T18:01:01.533Z,8.67
2023-01-07T18:03:30.202Z,8.67
2023-01-07T18:05:58.395Z,8.68
2023-01-07T18:08:26.442Z,8.65
2023-01-07T18:11:14.427Z,8.63
2023-01-07T18:13:43.370Z,8.63
2023-01-07T18:16:15.483Z,8.59
2023-01-07T18:18:43.658Z,8.55
2023-01-07T18:21:13.228Z,8.54
2023-01-07T18:23:41.314Z,8.48
2023-01-07T18:26:11.575Z,8.48
2023-01-07T18:28:39.759Z,8.47
2023-01-07T18:31:08.231Z,8.46
2023-01-07T18:33:36.821Z,8.47
2023-01-07T18:36:05.535Z,8.45
2023-01-07T18:38:33.707Z,8.43
2023-01-07T18:41:02.491Z,8.40
2023-01-07T18:43:32.014Z,8.37
2023-01-07T18:46:00.167Z,8.34
2023-01-07T18:48:28.340Z,8.27
2023-01-07T18:50:57.747Z,8.24
2023-01-07T18:53:26.649Z,8.27
2023-01-07T18:56:02.118Z,8.34
2023-01-07T18:58:31.866Z,8.39
2023-01-07T19:01:04.593Z,8.38
2023-01-07T19:03:33.173Z,8.41
2023-01-07T19:06:05.795Z,8.39
2023-01-07T19:08:33.931Z,8.38
2023-01-07T19:11:02.103Z,8.35
2023-01-07T19:13:31.720Z,8.37
2023-01-07T19:16:01.326Z,8.35
2023-01-07T19:18:29.554Z,8.28
2023-01-07T19:20:57.620Z,8.22
2023-01-07T19:23:25.668Z,8.22
2023-01-07T19:26:01.636Z,8.28
2023-01-07T19:28:32.601Z,8.21
2023-01-07T19:31:00.884Z,8.13
2023-01-07T19:33:28.956Z,8.11
2023-01-07T19:36:03.518Z,8.05
2023-01-07T19:38:31.991Z,8.01
2023-01-07T19:41:00.093Z,7.98
2023-01-07T19:43:28.131Z,7.95
2023-01-07T19:45:58.371Z,7.94
2023-01-07T19:48:26.439Z,7.97
2023-01-07T19:50:56.722Z,7.95
2023-01-07T19:53:25.162Z,7.91
2023-01-07T19:55:54.393Z,7.91
2023-01-07T19:58:22.917Z,7.92
2023-01-07T20:00:51.070Z,7.90
2023-01-07T20:03:20.594Z,7.94
2023-01-07T20:05:48.652Z,7.89
2023-01-07T20:08:16.675Z,7.86
2023-01-07T20:10:44.708Z,7.86
2023-01-07T20:13:12.790Z,7.95
2023-01-07T20:15:40.854Z,7.97
2023-01-07T20:18:08.874Z,8.08
2023-01-07T20:20:38.253Z,8.08
2023-01-07T20:23:06.264Z,8.05
2023-01-07T20:25:34.308Z,8.02
2023-01-07T20:28:02.373Z,8.12
2023-01-07T20:30:30.471Z,8.13
2023-01-07T20:32:58.549Z,8.11
2023-01-07T20:35:26.605Z,8.11
2023-01-07T20:37:56.128Z,8.08
2023-01-07T20:40:24.571Z,8.07
2023-01-07T20:42:52.601Z,8.08
2023-01-07T20:45:20.663Z,8.06
2023-01-07T20:47:48.728Z,8.09
2023-01-07T20:50:18.283Z,8.05
2023-01-07T20:52:46.384Z,8.08
2023-01-07T20:55:16.037Z,8.06
2023-01-07T20:57:44.102Z,8.14
2023-01-07T21:00:13.797Z,8.12
2023-01-07T21:02:41.930Z,8.18
2023-01-07T21:05:10.811Z,8.22
2023-01-07T21:07:38.864Z,8.16
2023-01-07T21:10:07.865Z,8.26
2023-01-07T21:12:37.318Z,8.29
2023-01-07T21:15:06.766Z,8.25
2023-01-07T21:17:34.865Z,8.24
2023-01-07T21:20:03.576Z,8.24
2023-01-07T21:22:31.801Z,8.21
2023-01-07T21:24:59.950Z,8.28
2023-01-07T21:27:28.036Z,8.21
2023-01-07T21:29:57.483Z,8.26
2023-01-07T21:32:25.589Z,8.24
2023-01-07T21:34:53.733Z,8.39
2023-01-07T21:37:21.811Z,8.30
2023-01-07T21:39:51.261Z,8.30
2023-01-07T21:42:19.515Z,8.34
2023-01-07T21:44:47.567Z,8.35
2023-01-07T21:47:17.303Z,8.34
2023-01-07T21:49:45.687Z,8.33
2023-01-07T21:52:13.784Z,8.38
2023-01-07T21:54:41.872Z,8.40
2023-01-07T21:57:09.975Z,8.34
2023-01-07T21:59:37.994Z,8.32
2023-01-07T22:02:06.413Z,8.27
2023-01-07T22:04:36.023Z,8.24
2023-01-07T22:07:04.108Z,8.21
2023-01-07T22:09:32.138Z,8.25
2023-01-07T22:12:00.202Z,8.26
2023-01-07T22:14:28.335Z,8.36
2023-01-07T22:16:56.441Z,8.30
2023-01-07T22:19:25.871Z,8.35
2023-01-07T22:21:55.447Z,8.41
2023-01-07T22:24:23.536Z,8.41
2023-01-07T22:26:52.697Z,8.35
2023-01-07T22:29:20.754Z,8.35
2023-01-07T22:31:50.999Z,8.29
2023-01-07T22:34:19.669Z,8.39
2023-01-07T22:36:55.025Z,8.41
2023-01-07T22:39:30.832Z,8.40
2023-01-07T22:42:06.792Z,8.43
2023-01-07T22:44:40.619Z,8.47
2023-01-07T22:47:12.059Z,8.45
2023-01-07T22:49:41.641Z,8.41
2023-01-07T22:52:11.599Z,8.41
2023-01-07T22:54:41.411Z,8.40
2023-01-07T22:57:12.972Z,8.44
2023-01-07T22:59:41.096Z,8.46
2023-01-07T23:02:09.753Z,8.44
2023-01-07T23:04:37.886Z,8.42
2023-01-07T23:07:05.985Z,8.62
2023-01-07T23:09:34.128Z,8.62
2023-01-07T23:12:03.927Z,8.64
2023-01-07T23:14:32.497Z,8.76
2023-01-07T23:17:00.542Z,8.78
2023-01-07T23:19:30.803Z,8.75
2023-01-07T23:22:00.120Z,8.70
2023-01-07T23:24:28.332Z,8.76
2023-01-07T23:26:57.139Z,8.79
2023-01-07T23:29:26.786Z,8.76
2023-01-07T23:31:54.946Z,8.75
2023-01-07T23:34:23.107Z,8.80
2023-01-07T23:36:51.137Z,8.91
2023-01-07T23:39:19.261Z,8.85
2023-01-07T23:41:47.320Z,8.85
2023-01-07T23:44:15.516Z,8.90
2023-01-07T23:46:44.901Z,8.81
2023-01-07T23:49:13.009Z,8.82
2023-01-07T23:51:42.212Z,8.80
2023-01-07T23:54:11.275Z,8.76
2023-01-07T23:56:39.347Z,8.70
2023-01-07T23:59:07.519Z,8.69
